sensor_id;sensor_type;location;lat;lon;timestamp;temperature;humidity
34833;DHT22;55941;50.800;4.342;2023-02-22T00:01:10;5.70;99.90
34833;DHT22;55941;50.800;4.342;2023-02-22T00:03:50;5.70;99.90
34833;DHT22;55941;50.800;4.342;2023-02-22T00:06:18;5.70;99.90
34833;DHT22;55941;50.800;4.342;2023-02-22T00:08:46;5.70;99.90
34833;DHT22;55941;50.800;4.342;2023-02-22T00:11:14;5.70;99.90
34833;DHT22;55941;50.800;4.342;2023-02-22T00:13:41;5.70;99.90
34833;DHT22;55941;50.800;4.342;2023-02-22T00:16:14;5.80;99.90
34833;DHT22;55941;50.800;4.342;2023-02-22T00:18:40;5.80;99.90
34833;DHT22;55941;50.800;4.342;2023-02-22T00:21:06;5.80;99.90
34833;DHT22;55941;50.800;4.342;2023-02-22T00:23:35;5.80;99.90
34833;DHT22;55941;50.800;4.342;2023-02-22T00:26:05;5.70;99.90
34833;DHT22;55941;50.800;4.342;2023-02-22T00:28:36;5.70;99.90
34833;DHT22;55941;50.800;4.342;2023-02-22T00:31:05;5.60;99.90
34833;DHT22;55941;50.800;4.342;2023-02-22T00:33:32;5.50;99.90
34833;DHT22;55941;50.800;4.342;2023-02-22T00:35:58;5.60;99.90
34833;DHT22;55941;50.800;4.342;2023-02-22T00:38:24;5.60;99.90
34833;DHT22;55941;50.800;4.342;2023-02-22T00:40:50;5.60;99.90
34833;DHT22;55941;50.800;4.342;2023-02-22T00:43:16;5.60;99.90
34833;DHT22;55941;50.800;4.342;2023-02-22T00:45:44;5.50;99.90
34833;DHT22;55941;50.800;4.342;2023-02-22T00:48:10;5.50;99.90
34833;DHT22;55941;50.800;4.342;2023-02-22T00:50:37;5.40;99.90
34833;DHT22;55941;50.800;4.342;2023-02-22T00:53:04;5.30;99.90
34833;DHT22;55941;50.800;4.342;2023-02-22T00:55:33;5.40;99.90
34833;DHT22;55941;50.800;4.342;2023-02-22T00:58:00;5.30;99.90
34833;DHT22;55941;50.800;4.342;2023-02-22T01:00:34;5.20;99.90
34833;DHT22;55941;50.800;4.342;2023-02-22T01:03:02;5.30;99.90
34833;DHT22;55941;50.800;4.342;2023-02-22T01:05:30;5.20;99.90
34833;DHT22;55941;50.800;4.342;2023-02-22T01:07:58;5.20;99.90
34833;DHT22;55941;50.800;4.342;2023-02-22T01:10:26;5.20;99.90
34833;DHT22;55941;50.800;4.342;2023-02-22T01:12:52;5.20;99.90
34833;DHT22;55941;50.800;4.342;2023-02-22T01:15:21;5.10;99.90
34833;DHT22;55941;50.800;4.342;2023-02-22T01:17:49;5.10;99.90
34833;DHT22;55941;50.800;4.342;2023-02-22T01:20:16;5.10;99.90
34833;DHT22;55941;50.800;4.342;2023-02-22T01:22:44;5.00;99.90
34833;DHT22;55941;50.800;4.342;2023-02-22T01:25:14;5.00;99.90
34833;DHT22;55941;50.800;4.342;2023-02-22T01:27:40;5.00;99.90
34833;DHT22;55941;50.800;4.342;2023-02-22T01:30:07;5.00;99.90
34833;DHT22;55941;50.800;4.342;2023-02-22T01:32:35;5.10;99.90
34833;DHT22;55941;50.800;4.342;2023-02-22T01:35:02;5.10;99.90
34833;DHT22;55941;50.800;4.342;2023-02-22T01:37:30;5.00;99.90
34833;DHT22;55941;50.800;4.342;2023-02-22T01:39:57;5.10;99.90
34833;DHT22;55941;50.800;4.342;2023-02-22T01:42:24;5.00;99.90
34833;DHT22;55941;50.800;4.342;2023-02-22T01:47:54;5.10;99.90
34833;DHT22;55941;50.800;4.342;2023-02-22T01:50:21;5.10;99.90
34833;DHT22;55941;50.800;4.342;2023-02-22T01:52:47;5.20;99.90
34833;DHT22;55941;50.800;4.342;2023-02-22T01:55:14;5.20;99.90
34833;DHT22;55941;50.800;4.342;2023-02-22T01:57:41;5.20;99.90
34833;DHT22;55941;50.800;4.342;2023-02-22T02:00:16;5.30;99.90
34833;DHT22;55941;50.800;4.342;2023-02-22T02:02:52;5.30;99.90
34833;DHT22;55941;50.800;4.342;2023-02-22T02:05:24;5.30;99.90
34833;DHT22;55941;50.800;4.342;2023-02-22T02:07:50;5.30;99.90
34833;DHT22;55941;50.800;4.342;2023-02-22T02:10:16;5.40;99.90
34833;DHT22;55941;50.800;4.342;2023-02-22T02:12:45;5.40;99.90
34833;DHT22;55941;50.800;4.342;2023-02-22T02:17:54;5.30;99.90
34833;DHT22;55941;50.800;4.342;2023-02-22T02:20:49;5.30;99.90
34833;DHT22;55941;50.800;4.342;2023-02-22T02:35:02;5.20;99.90
34833;DHT22;55941;50.800;4.342;2023-02-22T02:37:55;5.10;99.90
34833;DHT22;55941;50.800;4.342;2023-02-22T02:42:56;5.10;99.90
34833;DHT22;55941;50.800;4.342;2023-02-22T02:45:34;5.20;99.90
34833;DHT22;55941;50.800;4.342;2023-02-22T02:48:04;5.20;99.90
34833;DHT22;55941;50.800;4.342;2023-02-22T02:50:36;5.20;99.90
34833;DHT22;55941;50.800;4.342;2023-02-22T02:53:05;5.20;99.90
34833;DHT22;55941;50.800;4.342;2023-02-22T02:55:33;5.10;99.90
34833;DHT22;55941;50.800;4.342;2023-02-22T02:58:03;5.10;99.90
34833;DHT22;55941;50.800;4.342;2023-02-22T03:00:32;5.10;99.90
34833;DHT22;55941;50.800;4.342;2023-02-22T03:06:16;5.10;99.90
34833;DHT22;55941;50.800;4.342;2023-02-22T03:14:51;5.10;99.90
34833;DHT22;55941;50.800;4.342;2023-02-22T03:18:24;4.90;99.90
34833;DHT22;55941;50.800;4.342;2023-02-22T03:23:30;4.80;99.90
34833;DHT22;55941;50.800;4.342;2023-02-22T03:26:06;4.70;99.90
34833;DHT22;55941;50.800;4.342;2023-02-22T03:28:35;4.80;99.90
34833;DHT22;55941;50.800;4.342;2023-02-22T03:31:18;4.80;99.90
34833;DHT22;55941;50.800;4.342;2023-02-22T03:33:52;4.90;99.90
34833;DHT22;55941;50.800;4.342;2023-02-22T03:36:32;4.90;99.90
34833;DHT22;55941;50.800;4.342;2023-02-22T03:39:00;4.90;99.90
34833;DHT22;55941;50.800;4.342;2023-02-22T03:41:30;5.00;99.90
34833;DHT22;55941;50.800;4.342;2023-02-22T03:44:02;5.10;99.90
34833;DHT22;55941;50.800;4.342;2023-02-22T03:46:29;5.10;99.90
34833;DHT22;55941;50.800;4.342;2023-02-22T03:49:28;5.10;99.90
34833;DHT22;55941;50.800;4.342;2023-02-22T03:51:56;5.20;99.90
34833;DHT22;55941;50.800;4.342;2023-02-22T03:54:22;5.30;99.90
34833;DHT22;55941;50.800;4.342;2023-02-22T03:56:57;5.30;99.90
34833;DHT22;55941;50.800;4.342;2023-02-22T03:59:24;5.20;99.90
34833;DHT22;55941;50.800;4.342;2023-02-22T04:01:55;5.20;99.90
34833;DHT22;55941;50.800;4.342;2023-02-22T04:04:22;5.20;99.90
34833;DHT22;55941;50.800;4.342;2023-02-22T04:06:49;5.20;99.90
34833;DHT22;55941;50.800;4.342;2023-02-22T04:09:16;5.30;99.90
34833;DHT22;55941;50.800;4.342;2023-02-22T04:11:42;5.20;99.90
34833;DHT22;55941;50.800;4.342;2023-02-22T04:14:08;5.30;99.90
34833;DHT22;55941;50.800;4.342;2023-02-22T04:16:35;5.30;99.90
34833;DHT22;55941;50.800;4.342;2023-02-22T04:19:01;5.40;99.90
34833;DHT22;55941;50.800;4.342;2023-02-22T04:21:27;5.30;99.90
34833;DHT22;55941;50.800;4.342;2023-02-22T04:23:55;5.50;99.90
34833;DHT22;55941;50.800;4.342;2023-02-22T04:26:21;5.30;99.90
34833;DHT22;55941;50.800;4.342;2023-02-22T04:28:47;5.20;99.90
34833;DHT22;55941;50.800;4.342;2023-02-22T04:31:13;5.30;99.90
34833;DHT22;55941;50.800;4.342;2023-02-22T04:33:39;5.30;99.90
34833;DHT22;55941;50.800;4.342;2023-02-22T04:36:05;5.30;99.90
34833;DHT22;55941;50.800;4.342;2023-02-22T04:38:32;5.40;99.90
34833;DHT22;55941;50.800;4.342;2023-02-22T04:40:59;5.30;99.90
34833;DHT22;55941;50.800;4.342;2023-02-22T04:43:25;5.40;99.90
34833;DHT22;55941;50.800;4.342;2023-02-22T04:45:50;5.30;99.90
34833;DHT22;55941;50.800;4.342;2023-02-22T04:48:16;5.40;99.90
34833;DHT22;55941;50.800;4.342;2023-02-22T04:50:42;5.30;99.90
34833;DHT22;55941;50.800;4.342;2023-02-22T04:53:08;5.40;99.90
34833;DHT22;55941;50.800;4.342;2023-02-22T04:55:34;5.40;99.90
34833;DHT22;55941;50.800;4.342;2023-02-22T04:58:00;5.40;99.90
34833;DHT22;55941;50.800;4.342;2023-02-22T05:00:26;5.30;99.90
34833;DHT22;55941;50.800;4.342;2023-02-22T05:02:52;5.30;99.90
34833;DHT22;55941;50.800;4.342;2023-02-22T05:05:20;5.30;99.90
34833;DHT22;55941;50.800;4.342;2023-02-22T05:07:47;5.40;99.90
34833;DHT22;55941;50.800;4.342;2023-02-22T05:10:15;5.40;99.90
34833;DHT22;55941;50.800;4.342;2023-02-22T05:12:41;5.30;99.90
34833;DHT22;55941;50.800;4.342;2023-02-22T05:15:07;5.30;99.90
34833;DHT22;55941;50.800;4.342;2023-02-22T05:17:34;5.40;99.90
34833;DHT22;55941;50.800;4.342;2023-02-22T05:20:01;5.40;99.90
34833;DHT22;55941;50.800;4.342;2023-02-22T05:22:29;5.40;99.90
34833;DHT22;55941;50.800;4.342;2023-02-22T05:24:57;5.40;99.90
34833;DHT22;55941;50.800;4.342;2023-02-22T05:27:23;5.50;99.90
34833;DHT22;55941;50.800;4.342;2023-02-22T05:29:48;5.50;99.90
34833;DHT22;55941;50.800;4.342;2023-02-22T05:32:14;5.50;99.90
34833;DHT22;55941;50.800;4.342;2023-02-22T05:34:40;5.50;99.90
34833;DHT22;55941;50.800;4.342;2023-02-22T05:37:06;5.60;99.90
34833;DHT22;55941;50.800;4.342;2023-02-22T05:39:32;5.60;99.90
34833;DHT22;55941;50.800;4.342;2023-02-22T05:41:58;5.60;99.90
34833;DHT22;55941;50.800;4.342;2023-02-22T05:44:24;5.70;99.90
34833;DHT22;55941;50.800;4.342;2023-02-22T05:46:50;5.80;99.90
34833;DHT22;55941;50.800;4.342;2023-02-22T05:49:16;5.60;99.90
34833;DHT22;55941;50.800;4.342;2023-02-22T05:51:42;5.60;99.90
34833;DHT22;55941;50.800;4.342;2023-02-22T05:54:08;5.60;99.90
34833;DHT22;55941;50.800;4.342;2023-02-22T05:56:34;5.70;99.90
34833;DHT22;55941;50.800;4.342;2023-02-22T05:59:01;5.90;99.90
34833;DHT22;55941;50.800;4.342;2023-02-22T06:01:27;6.00;99.90
34833;DHT22;55941;50.800;4.342;2023-02-22T06:03:53;5.90;99.90
34833;DHT22;55941;50.800;4.342;2023-02-22T06:06:19;5.80;99.90
34833;DHT22;55941;50.800;4.342;2023-02-22T06:08:46;6.00;99.90
34833;DHT22;55941;50.800;4.342;2023-02-22T06:11:12;5.90;99.90
34833;DHT22;55941;50.800;4.342;2023-02-22T06:13:39;5.80;99.90
34833;DHT22;55941;50.800;4.342;2023-02-22T06:16:05;5.80;99.90
34833;DHT22;55941;50.800;4.342;2023-02-22T06:18:31;5.70;99.90
34833;DHT22;55941;50.800;4.342;2023-02-22T06:20:58;5.60;99.90
34833;DHT22;55941;50.800;4.342;2023-02-22T06:23:25;5.60;99.90
34833;DHT22;55941;50.800;4.342;2023-02-22T06:25:52;5.70;99.90
34833;DHT22;55941;50.800;4.342;2023-02-22T06:28:18;5.80;99.90
34833;DHT22;55941;50.800;4.342;2023-02-22T06:30:44;5.80;99.90
34833;DHT22;55941;50.800;4.342;2023-02-22T06:33:10;5.80;99.90
34833;DHT22;55941;50.800;4.342;2023-02-22T06:35:36;5.80;99.90
34833;DHT22;55941;50.800;4.342;2023-02-22T06:38:03;6.00;99.90
34833;DHT22;55941;50.800;4.342;2023-02-22T06:40:29;6.10;99.90
34833;DHT22;55941;50.800;4.342;2023-02-22T06:42:57;6.20;99.90
34833;DHT22;55941;50.800;4.342;2023-02-22T06:45:24;6.00;99.90
34833;DHT22;55941;50.800;4.342;2023-02-22T06:47:50;6.00;99.90
34833;DHT22;55941;50.800;4.342;2023-02-22T06:50:25;6.10;99.90
34833;DHT22;55941;50.800;4.342;2023-02-22T06:52:53;6.00;99.90
34833;DHT22;55941;50.800;4.342;2023-02-22T06:55:21;6.00;99.90
34833;DHT22;55941;50.800;4.342;2023-02-22T06:57:50;6.10;99.90
34833;DHT22;55941;50.800;4.342;2023-02-22T07:00:18;6.10;99.90
34833;DHT22;55941;50.800;4.342;2023-02-22T07:02:45;6.00;99.90
34833;DHT22;55941;50.800;4.342;2023-02-22T07:05:14;6.00;99.90
34833;DHT22;55941;50.800;4.342;2023-02-22T07:07:41;6.10;99.90
34833;DHT22;55941;50.800;4.342;2023-02-22T07:10:14;6.10;99.90
34833;DHT22;55941;50.800;4.342;2023-02-22T07:12:40;6.00;99.90
34833;DHT22;55941;50.800;4.342;2023-02-22T07:15:06;6.10;99.90
34833;DHT22;55941;50.800;4.342;2023-02-22T07:17:32;6.10;99.90
34833;DHT22;55941;50.800;4.342;2023-02-22T07:19:58;6.10;99.90
34833;DHT22;55941;50.800;4.342;2023-02-22T07:22:24;6.20;99.90
34833;DHT22;55941;50.800;4.342;2023-02-22T07:24:50;6.20;99.90
34833;DHT22;55941;50.800;4.342;2023-02-22T07:27:16;6.30;99.90
34833;DHT22;55941;50.800;4.342;2023-02-22T07:29:42;6.50;99.90
34833;DHT22;55941;50.800;4.342;2023-02-22T07:32:08;6.60;99.90
34833;DHT22;55941;50.800;4.342;2023-02-22T07:34:35;6.60;99.90
34833;DHT22;55941;50.800;4.342;2023-02-22T07:37:01;6.70;99.90
34833;DHT22;55941;50.800;4.342;2023-02-22T07:39:27;6.70;99.90
34833;DHT22;55941;50.800;4.342;2023-02-22T07:41:53;6.70;99.90
34833;DHT22;55941;50.800;4.342;2023-02-22T07:44:19;6.80;99.90
34833;DHT22;55941;50.800;4.342;2023-02-22T07:46:49;7.00;99.90
34833;DHT22;55941;50.800;4.342;2023-02-22T07:49:16;7.20;99.90
34833;DHT22;55941;50.800;4.342;2023-02-22T07:51:42;7.30;99.90
34833;DHT22;55941;50.800;4.342;2023-02-22T07:54:08;7.30;99.90
34833;DHT22;55941;50.800;4.342;2023-02-22T07:56:33;7.40;99.90
34833;DHT22;55941;50.800;4.342;2023-02-22T07:59:00;7.60;99.90
34833;DHT22;55941;50.800;4.342;2023-02-22T08:01:26;7.70;99.90
34833;DHT22;55941;50.800;4.342;2023-02-22T08:03:52;7.80;99.90
34833;DHT22;55941;50.800;4.342;2023-02-22T08:06:18;8.00;99.90
34833;DHT22;55941;50.800;4.342;2023-02-22T08:08:45;8.00;99.90
34833;DHT22;55941;50.800;4.342;2023-02-22T08:11:11;8.10;99.90
34833;DHT22;55941;50.800;4.342;2023-02-22T08:13:38;8.10;99.90
34833;DHT22;55941;50.800;4.342;2023-02-22T08:16:04;8.20;99.90
34833;DHT22;55941;50.800;4.342;2023-02-22T08:18:30;8.30;99.90
34833;DHT22;55941;50.800;4.342;2023-02-22T08:20:56;8.40;99.90
34833;DHT22;55941;50.800;4.342;2023-02-22T08:23:24;8.50;99.90
34833;DHT22;55941;50.800;4.342;2023-02-22T08:25:51;8.60;99.90
34833;DHT22;55941;50.800;4.342;2023-02-22T08:28:20;8.70;99.90
34833;DHT22;55941;50.800;4.342;2023-02-22T08:30:48;8.70;99.90
34833;DHT22;55941;50.800;4.342;2023-02-22T08:33:15;8.70;99.90
34833;DHT22;55941;50.800;4.342;2023-02-22T08:35:44;8.70;99.90
34833;DHT22;55941;50.800;4.342;2023-02-22T08:38:23;8.80;99.90
34833;DHT22;55941;50.800;4.342;2023-02-22T08:40:50;8.90;99.90
34833;DHT22;55941;50.800;4.342;2023-02-22T08:43:18;8.90;99.90
34833;DHT22;55941;50.800;4.342;2023-02-22T08:45:46;9.00;99.90
34833;DHT22;55941;50.800;4.342;2023-02-22T08:48:13;9.20;99.90
34833;DHT22;55941;50.800;4.342;2023-02-22T08:50:40;9.20;99.90
34833;DHT22;55941;50.800;4.342;2023-02-22T08:53:07;9.20;99.90
34833;DHT22;55941;50.800;4.342;2023-02-22T08:55:36;9.40;99.90
34833;DHT22;55941;50.800;4.342;2023-02-22T08:58:03;9.30;99.90
34833;DHT22;55941;50.800;4.342;2023-02-22T09:00:31;9.50;99.90
34833;DHT22;55941;50.800;4.342;2023-02-22T09:03:01;9.40;99.90
34833;DHT22;55941;50.800;4.342;2023-02-22T09:05:28;9.50;99.90
34833;DHT22;55941;50.800;4.342;2023-02-22T09:07:54;9.40;99.90
34833;DHT22;55941;50.800;4.342;2023-02-22T09:10:24;9.40;99.90
34833;DHT22;55941;50.800;4.342;2023-02-22T09:12:52;9.40;99.90
34833;DHT22;55941;50.800;4.342;2023-02-22T09:15:21;9.40;99.90
34833;DHT22;55941;50.800;4.342;2023-02-22T09:17:47;9.50;99.90
34833;DHT22;55941;50.800;4.342;2023-02-22T09:20:13;9.50;99.90
34833;DHT22;55941;50.800;4.342;2023-02-22T09:22:46;9.60;99.90
34833;DHT22;55941;50.800;4.342;2023-02-22T09:25:13;9.60;99.90
34833;DHT22;55941;50.800;4.342;2023-02-22T09:27:39;9.70;99.90
34833;DHT22;55941;50.800;4.342;2023-02-22T09:30:06;9.80;99.90
34833;DHT22;55941;50.800;4.342;2023-02-22T09:32:36;9.90;99.90
34833;DHT22;55941;50.800;4.342;2023-02-22T09:35:02;9.80;99.90
34833;DHT22;55941;50.800;4.342;2023-02-22T09:37:28;9.80;99.90
34833;DHT22;55941;50.800;4.342;2023-02-22T09:39:54;9.90;99.90
34833;DHT22;55941;50.800;4.342;2023-02-22T09:42:47;10.00;99.90
34833;DHT22;55941;50.800;4.342;2023-02-22T09:45:31;10.00;99.90
34833;DHT22;55941;50.800;4.342;2023-02-22T09:48:03;10.10;99.90
34833;DHT22;55941;50.800;4.342;2023-02-22T09:50:44;10.20;99.90
34833;DHT22;55941;50.800;4.342;2023-02-22T09:53:24;10.40;99.90
34833;DHT22;55941;50.800;4.342;2023-02-22T09:56:07;10.40;99.90
34833;DHT22;55941;50.800;4.342;2023-02-22T09:58:43;10.50;99.90
34833;DHT22;55941;50.800;4.342;2023-02-22T10:07:01;10.80;99.90
34833;DHT22;55941;50.800;4.342;2023-02-22T10:09:34;11.00;99.90
34833;DHT22;55941;50.800;4.342;2023-02-22T10:15:04;11.00;99.90
34833;DHT22;55941;50.800;4.342;2023-02-22T10:17:49;11.10;99.90
34833;DHT22;55941;50.800;4.342;2023-02-22T10:20:38;11.10;99.90
34833;DHT22;55941;50.800;4.342;2023-02-22T10:23:40;11.30;99.90
34833;DHT22;55941;50.800;4.342;2023-02-22T10:29:02;11.50;99.90
34833;DHT22;55941;50.800;4.342;2023-02-22T10:31:35;11.60;99.90
34833;DHT22;55941;50.800;4.342;2023-02-22T10:34:10;11.70;99.90
34833;DHT22;55941;50.800;4.342;2023-02-22T10:36:37;11.80;99.90
34833;DHT22;55941;50.800;4.342;2023-02-22T10:41:52;12.00;99.90
34833;DHT22;55941;50.800;4.342;2023-02-22T10:44:20;11.90;99.90
34833;DHT22;55941;50.800;4.342;2023-02-22T10:46:46;11.80;99.90
34833;DHT22;55941;50.800;4.342;2023-02-22T10:49:20;11.70;99.90
34833;DHT22;55941;50.800;4.342;2023-02-22T10:52:00;11.80;99.90
34833;DHT22;55941;50.800;4.342;2023-02-22T10:54:33;11.70;99.90
34833;DHT22;55941;50.800;4.342;2023-02-22T10:57:01;11.70;99.90
34833;DHT22;55941;50.800;4.342;2023-02-22T10:59:33;11.80;99.90
34833;DHT22;55941;50.800;4.342;2023-02-22T11:02:21;11.70;99.90
34833;DHT22;55941;50.800;4.342;2023-02-22T11:04:53;11.90;99.90
34833;DHT22;55941;50.800;4.342;2023-02-22T11:07:35;11.70;99.90
34833;DHT22;55941;50.800;4.342;2023-02-22T11:10:03;11.80;99.90
34833;DHT22;55941;50.800;4.342;2023-02-22T11:12:36;12.00;99.90
34833;DHT22;55941;50.800;4.342;2023-02-22T11:15:26;11.80;99.90
34833;DHT22;55941;50.800;4.342;2023-02-22T11:17:55;11.80;99.90
34833;DHT22;55941;50.800;4.342;2023-02-22T11:20:27;11.80;99.90
34833;DHT22;55941;50.800;4.342;2023-02-22T11:23:00;11.80;99.90
34833;DHT22;55941;50.800;4.342;2023-02-22T11:25:38;11.90;99.90
34833;DHT22;55941;50.800;4.342;2023-02-22T11:28:10;12.00;99.90
34833;DHT22;55941;50.800;4.342;2023-02-22T11:30:40;12.00;99.90
34833;DHT22;55941;50.800;4.342;2023-02-22T11:33:23;12.20;99.90
34833;DHT22;55941;50.800;4.342;2023-02-22T11:35:56;12.30;99.90
34833;DHT22;55941;50.800;4.342;2023-02-22T11:38:24;12.30;99.90
34833;DHT22;55941;50.800;4.342;2023-02-22T11:43:36;12.10;99.90
34833;DHT22;55941;50.800;4.342;2023-02-22T11:46:02;12.10;99.90
34833;DHT22;55941;50.800;4.342;2023-02-22T11:48:36;12.10;99.90
34833;DHT22;55941;50.800;4.342;2023-02-22T11:57:03;12.10;99.90
34833;DHT22;55941;50.800;4.342;2023-02-22T12:00:00;12.10;99.90
34833;DHT22;55941;50.800;4.342;2023-02-22T12:05:35;12.30;99.90
34833;DHT22;55941;50.800;4.342;2023-02-22T12:08:12;12.50;99.90
34833;DHT22;55941;50.800;4.342;2023-02-22T12:14:16;12.50;99.90
34833;DHT22;55941;50.800;4.342;2023-02-22T12:17:08;12.50;99.90
34833;DHT22;55941;50.800;4.342;2023-02-22T12:20:03;12.60;99.90
34833;DHT22;55941;50.800;4.342;2023-02-22T12:22:38;12.60;99.90
34833;DHT22;55941;50.800;4.342;2023-02-22T12:27:54;12.50;99.90
34833;DHT22;55941;50.800;4.342;2023-02-22T12:30:26;12.60;99.90
34833;DHT22;55941;50.800;4.342;2023-02-22T12:32:59;12.50;99.90
34833;DHT22;55941;50.800;4.342;2023-02-22T12:35:34;12.50;99.90
34833;DHT22;55941;50.800;4.342;2023-02-22T12:41:00;12.70;99.90
34833;DHT22;55941;50.800;4.342;2023-02-22T12:43:35;12.70;99.90
34833;DHT22;55941;50.800;4.342;2023-02-22T12:46:19;12.60;99.90
34833;DHT22;55941;50.800;4.342;2023-02-22T12:59:59;12.60;99.90
34833;DHT22;55941;50.800;4.342;2023-02-22T13:02:46;12.70;99.90
34833;DHT22;55941;50.800;4.342;2023-02-22T13:05:15;12.60;99.90
34833;DHT22;55941;50.800;4.342;2023-02-22T13:07:59;12.60;99.90
34833;DHT22;55941;50.800;4.342;2023-02-22T13:19:23;12.50;99.90
34833;DHT22;55941;50.800;4.342;2023-02-22T13:21:41;12.60;99.90
34833;DHT22;55941;50.800;4.342;2023-02-22T13:27:40;12.40;99.90
34833;DHT22;55941;50.800;4.342;2023-02-22T13:30:44;12.20;99.90
34833;DHT22;55941;50.800;4.342;2023-02-22T13:38:59;12.20;99.90
34833;DHT22;55941;50.800;4.342;2023-02-22T13:42:10;12.20;99.90
34833;DHT22;55941;50.800;4.342;2023-02-22T13:47:40;11.90;99.90
34833;DHT22;55941;50.800;4.342;2023-02-22T13:50:27;11.90;99.90
34833;DHT22;55941;50.800;4.342;2023-02-22T13:52:57;11.80;99.90
34833;DHT22;55941;50.800;4.342;2023-02-22T13:55:30;11.70;99.90
34833;DHT22;55941;50.800;4.342;2023-02-22T13:58:12;11.70;99.90
34833;DHT22;55941;50.800;4.342;2023-02-22T14:03:33;11.40;99.90
34833;DHT22;55941;50.800;4.342;2023-02-22T14:06:56;11.40;99.90
34833;DHT22;55941;50.800;4.342;2023-02-22T14:08:56;11.50;99.90
34833;DHT22;55941;50.800;4.342;2023-02-22T14:16:28;11.60;99.90
34833;DHT22;55941;50.800;4.342;2023-02-22T14:21:54;11.70;99.90
34833;DHT22;55941;50.800;4.342;2023-02-22T14:24:20;11.70;99.90
34833;DHT22;55941;50.800;4.342;2023-02-22T14:26:58;11.50;99.90
34833;DHT22;55941;50.800;4.342;2023-02-22T14:29:24;11.50;99.90
34833;DHT22;55941;50.800;4.342;2023-02-22T14:34:38;11.60;99.90
34833;DHT22;55941;50.800;4.342;2023-02-22T14:40:30;11.60;99.90
34833;DHT22;55941;50.800;4.342;2023-02-22T14:43:11;11.60;99.90
34833;DHT22;55941;50.800;4.342;2023-02-22T14:45:55;11.50;99.90
34833;DHT22;55941;50.800;4.342;2023-02-22T14:48:27;11.60;99.90
34833;DHT22;55941;50.800;4.342;2023-02-22T14:51:22;11.50;99.90
34833;DHT22;55941;50.800;4.342;2023-02-22T14:53:53;11.60;99.90
34833;DHT22;55941;50.800;4.342;2023-02-22T14:56:23;11.60;99.90
34833;DHT22;55941;50.800;4.342;2023-02-22T14:59:17;11.60;99.90
34833;DHT22;55941;50.800;4.342;2023-02-22T15:01:45;11.60;99.90
34833;DHT22;55941;50.800;4.342;2023-02-22T15:04:26;11.40;99.90
34833;DHT22;55941;50.800;4.342;2023-02-22T15:06:56;11.50;99.90
34833;DHT22;55941;50.800;4.342;2023-02-22T15:09:25;11.50;99.90
34833;DHT22;55941;50.800;4.342;2023-02-22T15:12:13;11.40;99.90
34833;DHT22;55941;50.800;4.342;2023-02-22T15:14:42;11.20;99.90
34833;DHT22;55941;50.800;4.342;2023-02-22T15:17:22;11.30;99.90
34833;DHT22;55941;50.800;4.342;2023-02-22T15:19:50;11.20;99.90
34833;DHT22;55941;50.800;4.342;2023-02-22T15:22:26;11.10;99.90
34833;DHT22;55941;50.800;4.342;2023-02-22T15:25:06;11.00;99.90
34833;DHT22;55941;50.800;4.342;2023-02-22T15:27:34;11.00;99.90
34833;DHT22;55941;50.800;4.342;2023-02-22T15:30:24;10.80;99.90
34833;DHT22;55941;50.800;4.342;2023-02-22T15:32:52;10.90;99.90
34833;DHT22;55941;50.800;4.342;2023-02-22T15:37:45;10.70;99.90
34833;DHT22;55941;50.800;4.342;2023-02-22T15:40:14;10.60;99.90
34833;DHT22;55941;50.800;4.342;2023-02-22T15:45:16;10.60;99.90
34833;DHT22;55941;50.800;4.342;2023-02-22T15:47:44;10.50;99.90
34833;DHT22;55941;50.800;4.342;2023-02-22T15:55:41;10.40;99.90
34833;DHT22;55941;50.800;4.342;2023-02-22T15:58:31;10.50;99.90
34833;DHT22;55941;50.800;4.342;2023-02-22T16:03:24;10.60;99.90
34833;DHT22;55941;50.800;4.342;2023-02-22T16:05:58;10.50;99.90
34833;DHT22;55941;50.800;4.342;2023-02-22T16:08:41;10.60;99.90
34833;DHT22;55941;50.800;4.342;2023-02-22T16:11:20;10.50;99.90
34833;DHT22;55941;50.800;4.342;2023-02-22T16:13:52;10.40;99.90
34833;DHT22;55941;50.800;4.342;2023-02-22T16:18:50;10.50;99.90
34833;DHT22;55941;50.800;4.342;2023-02-22T16:21:18;10.60;99.90
34833;DHT22;55941;50.800;4.342;2023-02-22T16:23:53;10.50;99.90
34833;DHT22;55941;50.800;4.342;2023-02-22T16:26:33;10.50;99.90
34833;DHT22;55941;50.800;4.342;2023-02-22T16:29:07;10.60;99.90
34833;DHT22;55941;50.800;4.342;2023-02-22T16:31:38;10.60;99.90
34833;DHT22;55941;50.800;4.342;2023-02-22T16:34:06;10.50;99.90
34833;DHT22;55941;50.800;4.342;2023-02-22T16:36:38;10.50;99.90
34833;DHT22;55941;50.800;4.342;2023-02-22T16:39:05;10.30;99.90
34833;DHT22;55941;50.800;4.342;2023-02-22T16:41:32;10.30;99.90
34833;DHT22;55941;50.800;4.342;2023-02-22T16:43:57;10.30;99.90
34833;DHT22;55941;50.800;4.342;2023-02-22T16:46:24;10.30;99.90
34833;DHT22;55941;50.800;4.342;2023-02-22T16:48:50;10.50;99.90
34833;DHT22;55941;50.800;4.342;2023-02-22T16:51:26;10.50;99.90
34833;DHT22;55941;50.800;4.342;2023-02-22T16:53:53;10.60;99.90
34833;DHT22;55941;50.800;4.342;2023-02-22T16:56:25;10.50;99.90
34833;DHT22;55941;50.800;4.342;2023-02-22T16:58:52;10.40;99.90
34833;DHT22;55941;50.800;4.342;2023-02-22T17:01:18;10.40;99.90
34833;DHT22;55941;50.800;4.342;2023-02-22T17:03:44;10.40;99.90
34833;DHT22;55941;50.800;4.342;2023-02-22T17:06:10;10.20;99.90
34833;DHT22;55941;50.800;4.342;2023-02-22T17:08:38;10.40;99.90
34833;DHT22;55941;50.800;4.342;2023-02-22T17:11:05;10.30;99.90
34833;DHT22;55941;50.800;4.342;2023-02-22T17:13:31;10.30;99.90
34833;DHT22;55941;50.800;4.342;2023-02-22T17:16:00;10.20;99.90
34833;DHT22;55941;50.800;4.342;2023-02-22T17:18:27;10.30;99.90
34833;DHT22;55941;50.800;4.342;2023-02-22T17:20:59;10.20;99.90
34833;DHT22;55941;50.800;4.342;2023-02-22T17:23:24;10.40;99.90
34833;DHT22;55941;50.800;4.342;2023-02-22T17:25:57;10.40;99.90
34833;DHT22;55941;50.800;4.342;2023-02-22T17:28:30;10.40;99.90
34833;DHT22;55941;50.800;4.342;2023-02-22T17:30:57;10.30;99.90
34833;DHT22;55941;50.800;4.342;2023-02-22T17:33:27;10.30;99.90
34833;DHT22;55941;50.800;4.342;2023-02-22T17:35:55;10.20;99.90
34833;DHT22;55941;50.800;4.342;2023-02-22T17:38:22;10.30;99.90
34833;DHT22;55941;50.800;4.342;2023-02-22T17:40:49;10.20;99.90
34833;DHT22;55941;50.800;4.342;2023-02-22T17:43:19;10.20;99.90
34833;DHT22;55941;50.800;4.342;2023-02-22T17:45:45;10.20;99.90
34833;DHT22;55941;50.800;4.342;2023-02-22T17:48:13;10.20;99.90
34833;DHT22;55941;50.800;4.342;2023-02-22T17:50:41;10.30;99.90
34833;DHT22;55941;50.800;4.342;2023-02-22T17:53:07;10.20;99.90
34833;DHT22;55941;50.800;4.342;2023-02-22T17:55:36;10.10;99.90
34833;DHT22;55941;50.800;4.342;2023-02-22T17:58:04;10.20;99.90
34833;DHT22;55941;50.800;4.342;2023-02-22T18:00:34;10.20;99.90
34833;DHT22;55941;50.800;4.342;2023-02-22T18:03:12;10.30;99.90
34833;DHT22;55941;50.800;4.342;2023-02-22T18:05:43;10.30;99.90
34833;DHT22;55941;50.800;4.342;2023-02-22T18:08:11;10.30;99.90
34833;DHT22;55941;50.800;4.342;2023-02-22T18:10:37;10.30;99.90
34833;DHT22;55941;50.800;4.342;2023-02-22T18:13:02;10.30;99.90